createdAt,value
2022-12-27T00:03:15.645Z,3.03
2022-12-27T00:09:11.216Z,2.30
2022-12-27T00:15:05.540Z,2.23
2022-12-27T00:20:59.675Z,2.13
2022-12-27T00:26:54.486Z,2.33
2022-12-27T00:32:47.520Z,2.63
2022-12-27T00:38:41.062Z,1.67
2022-12-27T00:44:36.824Z,2.33
2022-12-27T00:50:30.229Z,1.93
2022-12-27T00:56:25.798Z,1.97
2022-12-27T01:02:20.584Z,2.20
2022-12-27T01:08:14.194Z,2.13
2022-12-27T01:14:07.627Z,1.87
2022-12-27T01:20:02.349Z,3.43
2022-12-27T01:26:01.706Z,2.10
2022-12-27T01:31:55.117Z,1.80
2022-12-27T01:37:49.927Z,2.10
2022-12-27T01:43:43.409Z,2.00
2022-12-27T01:49:36.873Z,2.00
2022-12-27T01:55:36.356Z,2.53
2022-12-27T02:01:34.428Z,2.27
2022-12-27T02:07:38.670Z,2.17
2022-12-27T02:13:39.615Z,2.30
2022-12-27T02:19:43.266Z,2.10
2022-12-27T02:25:58.769Z,2.97
2022-12-27T02:31:58.918Z,1.87
2022-12-27T02:37:56.239Z,2.47
2022-12-27T02:44:07.395Z,2.10
2022-12-27T02:50:19.547Z,3.13
2022-12-27T02:56:46.607Z,2.10
2022-12-27T03:03:07.045Z,2.17
2022-12-27T03:09:12.405Z,2.40
2022-12-27T03:15:33.445Z,2.63
2022-12-27T03:21:48.720Z,2.27
2022-12-27T03:27:45.759Z,3.00
2022-12-27T03:33:40.887Z,2.47
2022-12-27T03:39:38.598Z,3.23
2022-12-27T03:46:12.346Z,2.33
2022-12-27T03:52:10.422Z,2.77
2022-12-27T03:58:04.395Z,2.50
2022-12-27T04:03:59.347Z,2.60
2022-12-27T04:10:10.093Z,2.20
2022-12-27T04:16:21.159Z,2.70
2022-12-27T04:22:33.590Z,2.80
2022-12-27T04:28:44.517Z,3.30
2022-12-27T04:34:44.288Z,2.67
2022-12-27T04:40:56.837Z,3.03
2022-12-27T04:47:07.588Z,2.80
2022-12-27T04:53:18.306Z,3.50
2022-12-27T04:59:30.564Z,3.10
2022-12-27T05:05:24.192Z,3.60
2022-12-27T05:11:34.922Z,3.97
2022-12-27T05:17:31.401Z,3.10
2022-12-27T05:23:47.602Z,3.80
2022-12-27T05:29:40.627Z,3.37
2022-12-27T05:35:35.847Z,4.10
2022-12-27T05:41:29.266Z,4.03
2022-12-27T05:47:22.709Z,4.20
2022-12-27T05:53:17.551Z,4.30
2022-12-27T05:59:10.713Z,4.43
2022-12-27T06:05:03.833Z,3.77
2022-12-27T06:11:05.947Z,3.87
2022-12-27T06:16:59.497Z,4.53
2022-12-27T06:22:53.020Z,3.47
2022-12-27T06:28:49.709Z,3.73
2022-12-27T06:34:43.808Z,2.80
2022-12-27T06:40:37.285Z,3.13
2022-12-27T06:46:31.651Z,2.93
2022-12-27T06:52:26.356Z,3.77
2022-12-27T06:58:25.931Z,3.40
2022-12-27T07:04:20.323Z,3.50
2022-12-27T07:10:13.345Z,3.20
2022-12-27T07:16:06.994Z,3.13
2022-12-27T07:22:01.508Z,3.40
2022-12-27T07:27:56.180Z,3.13
2022-12-27T07:33:49.299Z,4.20
2022-12-27T07:39:44.082Z,3.53
2022-12-27T07:45:37.345Z,3.93
2022-12-27T07:51:31.270Z,3.60
2022-12-27T07:57:26.109Z,3.60
2022-12-27T08:03:20.435Z,4.30
2022-12-27T08:09:16.686Z,3.90
2022-12-27T08:15:13.248Z,3.53
2022-12-27T08:21:06.806Z,3.63
2022-12-27T08:27:00.299Z,3.97
2022-12-27T08:32:55.117Z,3.30
2022-12-27T08:38:49.077Z,3.37
2022-12-27T08:44:42.254Z,3.20
2022-12-27T08:50:36.807Z,3.20
2022-12-27T08:56:29.781Z,3.77
2022-12-27T09:02:23.221Z,3.20
2022-12-27T09:08:18.623Z,3.20
2022-12-27T09:14:11.864Z,3.10
2022-12-27T09:20:05.882Z,3.87
2022-12-27T09:26:00.301Z,3.20
2022-12-27T09:31:53.366Z,3.60
2022-12-27T09:37:46.342Z,2.73
2022-12-27T09:43:45.575Z,3.00
2022-12-27T09:56:47.415Z,2.77
2022-12-27T10:02:45.955Z,3.70
2022-12-27T10:08:50.067Z,2.53
2022-12-27T10:14:57.421Z,2.30
2022-12-27T10:21:00.033Z,2.10
2022-12-27T10:26:56.523Z,2.60
2022-12-27T10:32:50.817Z,2.20
2022-12-27T10:38:45.908Z,2.47
2022-12-27T10:44:39.363Z,2.80
2022-12-27T10:50:32.893Z,2.43
2022-12-27T10:56:32.539Z,2.60
2022-12-27T11:02:26.113Z,2.50
2022-12-27T11:08:21.909Z,2.07
2022-12-27T11:14:19.570Z,1.60
2022-12-27T11:20:22.368Z,2.33
2022-12-27T11:26:23.381Z,2.30
2022-12-27T11:32:19.028Z,1.87
2022-12-27T11:38:24.342Z,2.37
2022-12-27T11:44:23.263Z,2.80
2022-12-27T11:50:39.330Z,2.03
2022-12-27T11:56:36.177Z,2.10
2022-12-27T12:02:44.440Z,2.10
2022-12-27T12:09:04.568Z,2.73
2022-12-27T12:15:14.707Z,1.83
2022-12-27T12:21:27.934Z,2.30
2022-12-27T12:27:44.343Z,2.40
2022-12-27T12:33:54.079Z,1.97
2022-12-27T12:40:11.861Z,2.40
2022-12-27T12:46:22.865Z,2.20
2022-12-27T12:52:39.632Z,2.43
2022-12-27T12:58:50.377Z,2.20
2022-12-27T13:05:04.622Z,2.60
2022-12-27T13:11:21.766Z,2.90
2022-12-27T13:17:19.951Z,2.13
2022-12-27T13:23:24.129Z,2.47
2022-12-27T13:29:44.184Z,2.50
2022-12-27T13:35:51.633Z,2.73
2022-12-27T13:42:01.179Z,2.53
2022-12-27T13:48:07.076Z,3.47
2022-12-27T13:54:31.287Z,2.50
2022-12-27T14:00:34.383Z,2.43
2022-12-27T14:06:53.151Z,2.00
2022-12-27T14:12:58.461Z,2.30
2022-12-27T14:19:11.632Z,2.60
2022-12-27T14:25:52.164Z,2.63
2022-12-27T14:32:10.953Z,3.50
2022-12-27T14:38:45.428Z,2.30
2022-12-27T14:45:26.824Z,1.93
2022-12-27T14:52:07.270Z,2.40
2022-12-27T14:58:23.565Z,2.20
2022-12-27T15:04:44.014Z,2.30
2022-12-27T15:10:56.593Z,2.90
2022-12-27T15:16:58.770Z,2.70
2022-12-27T15:23:27.126Z,2.80
2022-12-27T15:29:47.132Z,3.63
2022-12-27T15:35:53.764Z,3.33
2022-12-27T15:42:00.351Z,3.50
2022-12-27T15:48:41.531Z,3.80
2022-12-27T15:55:02.045Z,3.63
2022-12-27T16:01:26.147Z,3.63
2022-12-27T16:07:42.616Z,3.90
2022-12-27T16:13:49.259Z,3.40
2022-12-27T16:20:04.924Z,3.60
2022-12-27T16:26:04.339Z,4.30
2022-12-27T16:32:18.975Z,4.37
2022-12-27T16:38:23.404Z,4.50
2022-12-27T16:44:24.132Z,4.40
2022-12-27T16:50:41.424Z,5.23
2022-12-27T16:56:36.808Z,5.20
2022-12-27T17:02:33.583Z,4.80
2022-12-27T17:08:29.291Z,4.47
2022-12-27T17:14:26.641Z,6.63
2022-12-27T17:20:22.737Z,5.47
2022-12-27T17:26:30.817Z,4.70
2022-12-27T17:32:41.807Z,5.60
2022-12-27T17:38:44.864Z,5.43
2022-12-27T17:44:59.319Z,5.20
2022-12-27T17:50:55.113Z,5.47
2022-12-27T17:57:14.309Z,5.60
2022-12-27T18:03:12.237Z,6.40
2022-12-27T18:09:07.289Z,6.73
2022-12-27T18:15:02.741Z,6.10
2022-12-27T18:20:59.772Z,6.03
2022-12-27T18:27:02.146Z,7.30
2022-12-27T18:32:57.547Z,6.63
2022-12-27T18:38:57.014Z,6.47
2022-12-27T18:44:55.575Z,6.83
2022-12-27T18:50:52.687Z,7.10
2022-12-27T18:56:53.299Z,6.33
2022-12-27T19:02:46.973Z,6.67
2022-12-27T19:08:46.489Z,7.20
2022-12-27T19:14:44.796Z,7.13
2022-12-27T19:20:38.673Z,7.23
2022-12-27T19:26:34.059Z,7.40
2022-12-27T19:32:34.017Z,7.47
2022-12-27T19:38:29.788Z,7.13
2022-12-27T19:44:23.345Z,8.33
2022-12-27T19:50:18.355Z,7.33
2022-12-27T19:56:13.406Z,7.70
2022-12-27T20:02:07.454Z,7.50
2022-12-27T20:08:02.239Z,7.43
2022-12-27T20:13:55.973Z,7.63
2022-12-27T20:19:49.072Z,7.70
2022-12-27T20:25:45.829Z,9.73
2022-12-27T20:31:44.702Z,8.60
2022-12-27T20:37:38.957Z,8.60
2022-12-27T20:43:33.732Z,9.10
2022-12-27T20:49:27.312Z,9.23
2022-12-27T20:55:20.955Z,9.97
2022-12-27T21:01:17.677Z,9.60
2022-12-27T21:07:11.244Z,10.30
2022-12-27T21:13:04.955Z,10.50
2022-12-27T21:19:03.239Z,11.80
2022-12-27T21:24:56.703Z,10.97
2022-12-27T21:31:38.528Z,11.93
2022-12-27T21:37:50.212Z,11.40
2022-12-27T21:43:47.685Z,11.77
2022-12-27T21:49:41.865Z,12.43
2022-12-27T21:55:36.706Z,13.73
2022-12-27T22:01:51.717Z,12.40
2022-12-27T22:07:45.516Z,11.53
2022-12-27T22:13:40.444Z,11.67
2022-12-27T22:19:33.915Z,11.00
2022-12-27T22:25:27.337Z,10.40
2022-12-27T22:31:24.264Z,9.50
2022-12-27T22:37:17.768Z,9.53
2022-12-27T22:43:11.251Z,10.10
2022-12-27T22:49:07.963Z,9.70
2022-12-27T22:55:04.824Z,8.60
2022-12-27T23:01:00.963Z,8.30
2022-12-27T23:06:55.883Z,8.27
2022-12-27T23:12:49.276Z,8.07
2022-12-27T23:18:42.815Z,6.00
2022-12-27T23:24:38.257Z,6.50
2022-12-27T23:30:31.767Z,6.63
2022-12-27T23:36:25.359Z,5.47
2022-12-27T23:42:20.088Z,5.33
2022-12-27T23:48:13.551Z,4.10
2022-12-27T23:54:07.031Z,4.53
